createdAt,value
2023-04-07T00:01:28.970Z,93.54
2023-04-07T00:03:46.109Z,93.30
2023-04-07T00:06:03.507Z,92.91
2023-04-07T00:08:20.795Z,92.97
2023-04-07T00:10:39.272Z,92.77
2023-04-07T00:12:56.633Z,93.73
2023-04-07T00:15:13.725Z,94.01
2023-04-07T00:17:30.910Z,93.38
2023-04-07T00:19:47.909Z,94.22
2023-04-07T00:22:05.033Z,93.72
2023-04-07T00:24:31.470Z,94.42
2023-04-07T00:26:51.148Z,95.03
2023-04-07T00:29:08.098Z,94.31
2023-04-07T00:31:25.132Z,93.85
2023-04-07T00:33:42.521Z,95.29
2023-04-07T00:35:59.593Z,94.82
2023-04-07T00:38:17.547Z,94.00
2023-04-07T00:40:34.917Z,94.10
2023-04-07T00:42:51.770Z,93.43
2023-04-07T00:45:09.125Z,93.27
2023-04-07T00:47:26.142Z,94.27
2023-04-07T00:49:43.289Z,92.87
2023-04-07T00:52:01.661Z,93.38
2023-04-07T00:54:18.633Z,92.91
2023-04-07T00:56:35.870Z,93.86
2023-04-07T00:58:52.906Z,93.73
2023-04-07T01:01:09.979Z,93.51
2023-04-07T01:03:28.245Z,93.94
2023-04-07T01:05:45.853Z,94.48
2023-04-07T01:08:03.224Z,94.45
2023-04-07T01:10:20.276Z,94.02
2023-04-07T01:12:37.348Z,94.76
2023-04-07T01:14:54.722Z,94.30
2023-04-07T01:17:11.617Z,95.18
2023-04-07T01:19:28.600Z,94.85
2023-04-07T01:21:45.666Z,94.91
2023-04-07T01:24:02.890Z,94.37
2023-04-07T01:26:20.277Z,94.75
2023-04-07T01:28:37.331Z,94.08
2023-04-07T01:30:54.396Z,94.99
2023-04-07T01:33:11.533Z,94.60
2023-04-07T01:35:28.898Z,94.70
2023-04-07T01:37:46.186Z,93.58
2023-04-07T01:40:03.257Z,93.72
2023-04-07T01:42:20.254Z,93.11
2023-04-07T01:44:37.331Z,93.78
2023-04-07T01:46:54.345Z,94.32
2023-04-07T01:49:11.685Z,94.15
2023-04-07T01:51:28.686Z,94.25
2023-04-07T01:53:46.003Z,94.58
2023-04-07T01:56:03.046Z,94.75
2023-04-07T01:58:20.109Z,94.92
2023-04-07T02:00:37.076Z,95.09
2023-04-07T02:02:54.222Z,95.49
2023-04-07T02:05:15.331Z,95.39
2023-04-07T02:07:32.416Z,96.04
2023-04-07T02:09:49.433Z,95.09
2023-04-07T02:12:07.684Z,95.24
2023-04-07T02:14:24.644Z,95.55
2023-04-07T02:16:41.838Z,95.92
2023-04-07T02:18:58.818Z,95.38
2023-04-07T02:21:15.843Z,95.37
2023-04-07T02:23:33.091Z,95.52
2023-04-07T02:25:51.056Z,94.94
2023-04-07T02:28:08.375Z,95.68
2023-04-07T02:30:25.649Z,96.48
2023-04-07T02:32:42.757Z,96.08
2023-04-07T02:35:00.013Z,95.91
2023-04-07T02:37:17.330Z,96.17
2023-04-07T02:39:34.268Z,95.92
2023-04-07T02:41:51.317Z,96.23
2023-04-07T02:44:08.692Z,96.76
2023-04-07T02:46:25.889Z,96.55
2023-04-07T02:48:43.108Z,96.47
2023-04-07T02:51:00.038Z,96.53
2023-04-07T02:53:17.090Z,96.91
2023-04-07T02:55:35.128Z,96.69
2023-04-07T02:57:52.155Z,96.79
2023-04-07T03:00:09.471Z,97.19
2023-04-07T03:02:26.514Z,97.05
2023-04-07T03:04:43.906Z,96.86
2023-04-07T03:07:00.842Z,97.06
2023-04-07T03:09:18.143Z,97.32
2023-04-07T03:11:35.114Z,96.88
2023-04-07T03:13:52.211Z,96.71
2023-04-07T03:16:09.466Z,97.09
2023-04-07T03:18:26.486Z,97.15
2023-04-07T03:20:44.760Z,97.16
2023-04-07T03:23:01.842Z,97.37
2023-04-07T03:25:18.743Z,97.45
2023-04-07T03:27:35.601Z,96.90
2023-04-07T03:29:52.871Z,97.24
2023-04-07T03:32:09.907Z,97.04
2023-04-07T03:34:26.948Z,97.55
2023-04-07T03:36:44.170Z,97.10
2023-04-07T03:39:01.211Z,97.03
2023-04-07T03:41:18.494Z,96.83
2023-04-07T03:43:35.387Z,97.31
2023-04-07T03:45:52.448Z,97.49
2023-04-07T03:48:09.525Z,97.43
2023-04-07T03:50:26.502Z,97.72
2023-04-07T03:52:43.501Z,97.17
2023-04-07T03:55:00.618Z,97.25
2023-04-07T03:57:17.898Z,97.43
2023-04-07T03:59:34.969Z,97.55
2023-04-07T04:01:51.928Z,97.21
2023-04-07T04:04:09.160Z,97.18
2023-04-07T04:06:26.200Z,97.15
2023-04-07T04:08:43.505Z,97.73
2023-04-07T04:11:00.783Z,97.36
2023-04-07T04:13:18.035Z,97.09
2023-04-07T04:15:35.107Z,97.51
2023-04-07T04:17:52.001Z,97.78
2023-04-07T04:20:09.084Z,97.44
2023-04-07T04:22:25.998Z,97.19
2023-04-07T04:24:45.675Z,97.88
2023-04-07T04:27:02.685Z,97.68
2023-04-07T04:29:20.602Z,97.34
2023-04-07T04:31:37.912Z,97.82
2023-04-07T04:33:55.428Z,97.67
2023-04-07T04:36:12.921Z,97.05
2023-04-07T04:38:29.938Z,97.14
2023-04-07T04:40:47.210Z,97.48
2023-04-07T04:43:04.560Z,97.70
2023-04-07T04:45:21.502Z,97.90
2023-04-07T04:47:39.460Z,97.93
2023-04-07T04:49:56.814Z,97.82
2023-04-07T04:52:13.799Z,97.58
2023-04-07T04:54:31.082Z,97.61
2023-04-07T04:56:48.100Z,96.92
2023-04-07T04:59:05.034Z,97.57
2023-04-07T05:01:22.123Z,97.59
2023-04-07T05:03:39.403Z,97.81
2023-04-07T05:05:56.792Z,97.29
2023-04-07T05:08:13.734Z,97.86
2023-04-07T05:10:30.639Z,97.24
2023-04-07T05:12:47.519Z,97.81
2023-04-07T05:15:04.754Z,98.43
2023-04-07T05:17:21.718Z,98.19
2023-04-07T05:19:38.705Z,98.08
2023-04-07T05:21:55.673Z,97.30
2023-04-07T05:24:12.955Z,97.09
2023-04-07T05:26:29.908Z,97.83
2023-04-07T05:28:46.889Z,97.47
2023-04-07T05:31:05.723Z,97.85
2023-04-07T05:33:24.542Z,97.86
2023-04-07T05:35:42.806Z,98.19
2023-04-07T05:37:59.864Z,98.44
2023-04-07T05:40:16.793Z,97.85
2023-04-07T05:42:34.067Z,98.36
2023-04-07T05:44:51.110Z,97.94
2023-04-07T05:47:08.142Z,98.31
2023-04-07T05:49:25.189Z,98.03
2023-04-07T05:51:42.405Z,97.73
2023-04-07T05:53:59.462Z,98.21
2023-04-07T05:56:17.519Z,98.24
2023-04-07T05:58:34.414Z,98.74
2023-04-07T06:00:51.346Z,99.05
2023-04-07T06:03:08.507Z,98.68
2023-04-07T06:05:25.942Z,98.40
2023-04-07T06:07:42.958Z,98.62
2023-04-07T06:10:00.253Z,99.18
2023-04-07T06:12:17.493Z,99.10
2023-04-07T06:14:34.720Z,98.48
2023-04-07T06:16:52.086Z,97.59
2023-04-07T06:19:09.053Z,98.48
2023-04-07T06:21:26.354Z,97.75
2023-04-07T06:23:43.330Z,98.03
2023-04-07T06:26:00.771Z,97.36
2023-04-07T06:28:18.051Z,97.70
2023-04-07T06:30:34.955Z,98.76
2023-04-07T06:32:51.989Z,98.23
2023-04-07T06:35:08.947Z,98.46
2023-04-07T06:37:25.878Z,98.03
2023-04-07T06:39:43.055Z,97.45
2023-04-07T06:42:00.385Z,97.62
2023-04-07T06:44:17.558Z,97.79
2023-04-07T06:46:34.683Z,97.74
2023-04-07T06:48:51.773Z,97.80
2023-04-07T06:51:08.896Z,98.12
2023-04-07T06:53:25.930Z,98.16
2023-04-07T06:55:43.196Z,98.10
2023-04-07T06:58:00.209Z,98.00
2023-04-07T07:00:17.152Z,98.08
2023-04-07T07:02:34.560Z,97.96
2023-04-07T07:04:51.632Z,96.97
2023-04-07T07:07:08.669Z,97.48
2023-04-07T07:09:25.886Z,96.79
2023-04-07T07:11:43.897Z,97.13
2023-04-07T07:14:01.134Z,97.75
2023-04-07T07:16:19.209Z,97.37
2023-04-07T07:18:37.486Z,97.46
2023-04-07T07:20:54.384Z,97.82
2023-04-07T07:23:12.278Z,96.02
2023-04-07T07:25:29.263Z,95.06
2023-04-07T07:27:46.207Z,94.51
2023-04-07T07:30:03.311Z,93.48
2023-04-07T07:32:20.372Z,92.90
2023-04-07T07:34:37.417Z,92.19
2023-04-07T07:36:54.714Z,90.69
2023-04-07T07:39:11.684Z,90.43
2023-04-07T07:41:28.712Z,93.16
2023-04-07T07:43:46.225Z,92.70
2023-04-07T07:46:03.289Z,91.19
2023-04-07T07:48:20.263Z,91.52
2023-04-07T07:50:37.167Z,91.55
2023-04-07T07:52:54.412Z,92.44
2023-04-07T07:55:11.658Z,91.77
2023-04-07T07:57:28.654Z,92.43
2023-04-07T07:59:45.625Z,91.26
2023-04-07T08:02:02.743Z,91.42
2023-04-07T08:04:19.865Z,91.23
2023-04-07T08:06:37.195Z,91.35
2023-04-07T08:08:54.094Z,91.04
2023-04-07T08:11:11.228Z,91.44
2023-04-07T08:13:28.504Z,92.34
2023-04-07T08:15:45.879Z,93.25
2023-04-07T08:18:02.996Z,92.76
2023-04-07T08:20:20.031Z,93.72
2023-04-07T08:22:36.896Z,93.62
2023-04-07T08:24:54.098Z,93.86
2023-04-07T08:27:11.334Z,94.16
2023-04-07T08:29:29.096Z,93.82
2023-04-07T08:31:47.461Z,91.72
2023-04-07T08:34:04.435Z,91.74
2023-04-07T08:36:22.641Z,92.79
2023-04-07T08:38:39.529Z,92.13
2023-04-07T08:40:56.567Z,88.21
2023-04-07T08:43:13.632Z,89.44
2023-04-07T08:45:30.942Z,88.90
2023-04-07T08:47:48.020Z,90.13
2023-04-07T08:50:05.109Z,88.79
2023-04-07T08:52:22.326Z,87.98
2023-04-07T08:54:39.580Z,89.70
2023-04-07T08:56:56.831Z,88.41
2023-04-07T08:59:13.769Z,87.96
2023-04-07T09:01:30.811Z,87.55
2023-04-07T09:03:48.153Z,87.26
2023-04-07T09:06:05.370Z,86.83
2023-04-07T09:08:23.572Z,87.41
2023-04-07T09:10:40.486Z,87.38
2023-04-07T09:12:57.425Z,85.75
2023-04-07T09:15:14.456Z,88.14
2023-04-07T09:17:31.726Z,88.45
2023-04-07T09:19:50.078Z,89.08
2023-04-07T09:22:07.417Z,88.78
2023-04-07T09:24:25.433Z,88.80
2023-04-07T09:26:42.429Z,87.72
2023-04-07T09:28:59.353Z,89.76
2023-04-07T09:31:17.615Z,88.92
2023-04-07T09:33:34.440Z,88.43
2023-04-07T09:35:51.689Z,88.79
2023-04-07T09:38:08.966Z,87.80
2023-04-07T09:40:26.066Z,87.17
2023-04-07T09:42:43.115Z,87.83
2023-04-07T09:44:59.998Z,87.07
2023-04-07T09:47:17.079Z,86.64
2023-04-07T09:49:34.392Z,86.17
2023-04-07T09:51:52.715Z,86.60
2023-04-07T09:54:09.618Z,84.90
2023-04-07T09:56:26.575Z,83.70
2023-04-07T09:58:43.564Z,84.91
2023-04-07T10:01:00.608Z,84.25
2023-04-07T10:03:17.904Z,85.03
2023-04-07T10:05:35.013Z,83.53
2023-04-07T10:07:53.198Z,83.33
2023-04-07T10:10:11.129Z,84.86
2023-04-07T10:12:28.018Z,81.55
2023-04-07T10:14:44.961Z,83.67
2023-04-07T10:17:02.059Z,83.14
2023-04-07T10:19:19.029Z,83.47
2023-04-07T10:21:36.113Z,84.80
2023-04-07T10:23:53.193Z,84.82
2023-04-07T10:26:10.173Z,86.05
2023-04-07T10:28:27.477Z,86.89
2023-04-07T10:30:44.346Z,85.80
2023-04-07T10:33:01.498Z,87.04
2023-04-07T10:35:18.537Z,87.23
2023-04-07T10:37:35.849Z,86.27
2023-04-07T10:39:53.734Z,87.04
2023-04-07T10:42:11.021Z,84.92
2023-04-07T10:44:28.899Z,86.23
2023-04-07T10:46:45.951Z,85.44
2023-04-07T10:49:02.972Z,85.87
2023-04-07T10:51:20.316Z,86.15
2023-04-07T10:53:37.534Z,86.08
2023-04-07T10:55:54.397Z,87.32
2023-04-07T10:58:11.713Z,88.38
2023-04-07T11:00:28.958Z,88.66
2023-04-07T11:02:46.003Z,89.53
2023-04-07T11:05:03.175Z,91.62
2023-04-07T11:07:20.468Z,91.77
2023-04-07T11:09:37.547Z,92.29
2023-04-07T11:11:54.613Z,91.96
2023-04-07T11:14:11.499Z,93.51
2023-04-07T11:16:28.565Z,93.18
2023-04-07T11:18:45.780Z,94.65
2023-04-07T11:21:02.975Z,94.43
2023-04-07T11:23:20.000Z,92.99
2023-04-07T11:25:37.420Z,92.97
2023-04-07T11:27:54.691Z,93.60
2023-04-07T11:30:11.949Z,94.70
2023-04-07T11:32:30.232Z,94.55
2023-04-07T11:34:47.316Z,93.62
2023-04-07T11:37:04.340Z,92.90
2023-04-07T11:39:21.256Z,92.27
2023-04-07T11:41:38.299Z,91.32
2023-04-07T11:43:55.209Z,91.30
2023-04-07T11:46:12.598Z,92.36
2023-04-07T11:48:29.991Z,91.72
2023-04-07T11:50:47.001Z,90.09
2023-04-07T11:53:04.344Z,90.51
2023-04-07T11:55:22.450Z,89.58
2023-04-07T11:57:39.862Z,85.73
2023-04-07T11:59:57.089Z,83.28
2023-04-07T12:02:14.401Z,82.68
2023-04-07T12:04:32.594Z,78.98
2023-04-07T12:06:50.016Z,79.91
2023-04-07T12:09:07.092Z,78.23
2023-04-07T12:11:24.080Z,78.08
2023-04-07T12:13:41.004Z,77.28
2023-04-07T12:15:57.961Z,77.45
2023-04-07T12:18:14.979Z,77.97
2023-04-07T12:20:33.282Z,75.96
2023-04-07T12:22:50.321Z,75.18
2023-04-07T12:25:07.332Z,76.42
2023-04-07T12:27:35.881Z,76.90
2023-04-07T12:29:59.281Z,77.66
2023-04-07T12:32:16.451Z,77.59
2023-04-07T12:34:33.414Z,78.71
2023-04-07T12:36:50.667Z,78.88
2023-04-07T12:39:07.607Z,78.33
2023-04-07T12:41:24.912Z,78.18
2023-04-07T12:43:41.962Z,77.55
2023-04-07T12:45:58.967Z,77.25
2023-04-07T12:48:15.917Z,77.39
2023-04-07T12:50:32.835Z,76.50
2023-04-07T12:52:49.863Z,75.49
2023-04-07T12:55:06.870Z,74.44
2023-04-07T12:57:24.936Z,72.98
2023-04-07T12:59:41.966Z,75.03
2023-04-07T13:01:59.200Z,75.43
2023-04-07T13:04:16.418Z,76.36
2023-04-07T13:06:33.818Z,76.29
2023-04-07T13:08:51.708Z,76.93
2023-04-07T13:11:08.728Z,76.62
2023-04-07T13:13:25.616Z,76.85
2023-04-07T13:15:42.567Z,78.36
2023-04-07T13:17:59.590Z,79.55
2023-04-07T13:20:19.789Z,79.92
2023-04-07T13:22:46.114Z,79.66
2023-04-07T13:25:06.261Z,80.90
2023-04-07T13:27:23.300Z,81.68
2023-04-07T13:29:41.233Z,82.28
2023-04-07T13:31:58.286Z,82.75
2023-04-07T13:34:15.353Z,82.04
2023-04-07T13:36:32.428Z,81.22
2023-04-07T13:38:49.688Z,81.68
2023-04-07T13:41:07.038Z,81.04
2023-04-07T13:43:25.352Z,81.61
2023-04-07T13:45:42.729Z,80.84
2023-04-07T13:48:00.104Z,82.57
2023-04-07T13:50:17.365Z,83.43
2023-04-07T13:52:34.409Z,81.52
2023-04-07T13:54:51.669Z,81.48
2023-04-07T13:57:08.697Z,79.27
2023-04-07T13:59:25.637Z,78.65
2023-04-07T14:01:43.752Z,80.52
2023-04-07T14:04:01.278Z,81.84
2023-04-07T14:06:18.560Z,83.15
2023-04-07T14:08:35.472Z,83.55
2023-04-07T14:10:52.795Z,84.97
2023-04-07T14:13:10.197Z,85.62
2023-04-07T14:15:27.093Z,86.85
2023-04-07T14:17:45.062Z,86.38
2023-04-07T14:20:01.987Z,87.56
2023-04-07T14:22:19.293Z,87.69
2023-04-07T14:24:36.554Z,87.30
2023-04-07T14:26:53.925Z,89.11
2023-04-07T14:29:10.916Z,87.94
2023-04-07T14:31:28.300Z,88.50
2023-04-07T14:33:45.252Z,87.74
2023-04-07T14:36:02.369Z,85.99
2023-04-07T14:38:19.658Z,86.90
2023-04-07T14:40:36.738Z,86.50
2023-04-07T14:43:06.937Z,87.75
2023-04-07T14:45:24.613Z,88.30
2023-04-07T14:47:41.627Z,88.71
2023-04-07T14:49:58.789Z,86.64
2023-04-07T14:52:15.704Z,87.12
2023-04-07T14:54:33.017Z,87.67
2023-04-07T14:56:49.950Z,87.25
2023-04-07T14:59:07.890Z,85.76
2023-04-07T15:01:24.879Z,86.49
2023-04-07T15:03:42.015Z,85.41
2023-04-07T15:05:59.332Z,85.29
2023-04-07T15:08:16.285Z,84.98
2023-04-07T15:10:33.304Z,84.53
2023-04-07T15:12:50.563Z,82.57
2023-04-07T15:15:07.600Z,79.96
2023-04-07T15:17:36.410Z,79.80
2023-04-07T15:20:00.152Z,77.80
2023-04-07T15:22:18.624Z,76.04
2023-04-07T15:24:35.834Z,75.88
2023-04-07T15:26:53.033Z,75.66
2023-04-07T15:29:09.955Z,74.97
2023-04-07T15:31:26.884Z,74.34
2023-04-07T15:33:43.925Z,75.72
2023-04-07T15:36:01.122Z,74.34
2023-04-07T15:38:18.259Z,75.69
2023-04-07T15:40:35.163Z,74.60
2023-04-07T15:42:52.478Z,74.52
2023-04-07T15:45:09.411Z,76.05
2023-04-07T15:47:26.516Z,75.49
2023-04-07T15:49:43.406Z,78.03
2023-04-07T15:52:00.310Z,78.89
2023-04-07T15:54:17.665Z,78.92
2023-04-07T15:56:34.924Z,79.85
2023-04-07T15:58:52.242Z,80.71
2023-04-07T16:01:09.353Z,80.71
2023-04-07T16:03:26.577Z,81.64
2023-04-07T16:05:43.615Z,82.47
2023-04-07T16:08:00.942Z,81.18
2023-04-07T16:10:17.932Z,81.08
2023-04-07T16:12:34.888Z,82.45
2023-04-07T16:14:52.045Z,81.37
2023-04-07T16:17:09.387Z,82.72
2023-04-07T16:19:27.434Z,82.65
2023-04-07T16:21:44.475Z,83.80
2023-04-07T16:24:01.481Z,83.94
2023-04-07T16:26:18.582Z,84.31
2023-04-07T16:28:35.641Z,80.68
2023-04-07T16:30:52.718Z,80.99
2023-04-07T16:33:10.051Z,80.22
2023-04-07T16:35:28.148Z,80.15
2023-04-07T16:37:45.001Z,80.31
2023-04-07T16:40:02.402Z,81.43
2023-04-07T16:42:19.351Z,81.37
2023-04-07T16:44:36.394Z,81.22
2023-04-07T16:46:53.649Z,80.67
2023-04-07T16:49:11.013Z,81.55
2023-04-07T16:51:28.048Z,81.39
2023-04-07T16:53:45.237Z,81.83
2023-04-07T16:56:02.191Z,83.01
2023-04-07T16:58:19.561Z,82.28
2023-04-07T17:00:36.574Z,82.82
2023-04-07T17:02:53.705Z,82.66
2023-04-07T17:05:10.827Z,82.54
2023-04-07T17:07:28.139Z,83.25
2023-04-07T17:09:45.093Z,82.35
2023-04-07T17:12:02.170Z,82.98
2023-04-07T17:14:19.253Z,84.07
2023-04-07T17:16:37.333Z,83.71
2023-04-07T17:18:54.210Z,84.00
2023-04-07T17:21:11.278Z,83.61
2023-04-07T17:23:28.354Z,84.11
2023-04-07T17:25:45.470Z,84.40
2023-04-07T17:28:03.913Z,86.31
2023-04-07T17:30:21.217Z,85.48
2023-04-07T17:32:39.327Z,84.99
2023-04-07T17:34:56.673Z,86.19
2023-04-07T17:37:13.995Z,86.56
2023-04-07T17:39:31.362Z,86.67
2023-04-07T17:41:48.397Z,86.77
2023-04-07T17:44:07.350Z,87.17
2023-04-07T17:46:24.660Z,87.62
2023-04-07T17:48:42.626Z,87.82
2023-04-07T17:50:59.526Z,88.48
2023-04-07T17:53:16.453Z,88.47
2023-04-07T17:55:33.619Z,87.91
2023-04-07T17:57:50.898Z,88.30
2023-04-07T18:00:07.901Z,89.68
2023-04-07T18:02:26.390Z,88.99
2023-04-07T18:04:43.880Z,89.60
2023-04-07T18:07:01.070Z,90.27
2023-04-07T18:09:19.731Z,89.49
2023-04-07T18:11:36.973Z,89.28
2023-04-07T18:13:53.993Z,90.23
2023-04-07T18:16:11.297Z,88.59
2023-04-07T18:18:28.380Z,89.57
2023-04-07T18:20:46.414Z,89.57
2023-04-07T18:23:03.323Z,89.91
2023-04-07T18:25:20.317Z,90.05
2023-04-07T18:27:37.213Z,90.28
2023-04-07T18:29:55.537Z,90.91
2023-04-07T18:32:12.772Z,91.36
2023-04-07T18:34:29.887Z,91.62
2023-04-07T18:36:46.932Z,90.27
2023-04-07T18:39:03.874Z,90.32
2023-04-07T18:41:20.744Z,90.60
2023-04-07T18:43:37.781Z,90.78
2023-04-07T18:45:56.791Z,90.37
2023-04-07T18:48:14.717Z,90.58
2023-04-07T18:50:31.692Z,91.34
2023-04-07T18:52:48.689Z,91.14
2023-04-07T18:55:05.593Z,91.32
2023-04-07T18:57:22.966Z,92.02
2023-04-07T18:59:40.071Z,92.32
2023-04-07T19:01:57.211Z,91.86
2023-04-07T19:04:14.195Z,91.72
2023-04-07T19:06:31.335Z,92.18
2023-04-07T19:08:48.255Z,91.27
2023-04-07T19:11:05.527Z,92.05
2023-04-07T19:13:22.435Z,91.49
2023-04-07T19:15:40.789Z,91.80
2023-04-07T19:17:58.110Z,93.73
2023-04-07T19:20:15.128Z,93.46
2023-04-07T19:22:32.019Z,91.86
2023-04-07T19:24:50.221Z,92.08
2023-04-07T19:27:07.470Z,92.26
2023-04-07T19:29:24.470Z,92.32
2023-04-07T19:31:41.560Z,93.72
2023-04-07T19:33:58.477Z,93.36
2023-04-07T19:36:15.463Z,93.28
2023-04-07T19:38:32.486Z,94.51
2023-04-07T19:40:49.815Z,93.33
2023-04-07T19:43:06.844Z,94.50
2023-04-07T19:45:23.819Z,93.95
2023-04-07T19:47:40.867Z,94.02
2023-04-07T19:49:59.147Z,94.08
2023-04-07T19:52:17.227Z,94.33
2023-04-07T19:54:36.370Z,94.98
2023-04-07T19:56:53.470Z,94.08
2023-04-07T19:59:11.495Z,94.63
2023-04-07T20:01:28.988Z,94.20
2023-04-07T20:03:46.160Z,94.05
2023-04-07T20:06:03.220Z,95.38
2023-04-07T20:08:20.232Z,95.13
2023-04-07T20:10:37.176Z,95.44
2023-04-07T20:12:55.069Z,95.48
2023-04-07T20:15:11.981Z,94.50
2023-04-07T20:17:29.367Z,95.37
2023-04-07T20:19:46.437Z,95.53
2023-04-07T20:22:03.679Z,95.29
2023-04-07T20:24:20.948Z,95.52
2023-04-07T20:26:37.915Z,94.68
2023-04-07T20:28:55.850Z,94.34
2023-04-07T20:31:12.922Z,95.04
2023-04-07T20:33:29.890Z,94.57
2023-04-07T20:35:46.935Z,95.84
2023-04-07T20:38:04.019Z,95.80
2023-04-07T20:40:21.270Z,95.65
2023-04-07T20:42:38.299Z,96.23
2023-04-07T20:44:55.339Z,95.62
2023-04-07T20:47:13.274Z,95.69
2023-04-07T20:49:30.516Z,95.05
2023-04-07T20:51:47.825Z,94.88
2023-04-07T20:54:04.730Z,95.89
2023-04-07T20:56:21.804Z,95.63
2023-04-07T20:58:38.843Z,94.48
2023-04-07T21:00:57.011Z,95.50
2023-04-07T21:03:14.588Z,96.04
2023-04-07T21:05:31.808Z,94.99
2023-04-07T21:07:49.501Z,95.87
2023-04-07T21:10:06.624Z,95.78
2023-04-07T21:12:23.695Z,95.29
2023-04-07T21:14:40.735Z,95.30
2023-04-07T21:16:57.770Z,95.89
2023-04-07T21:19:14.705Z,95.12
2023-04-07T21:21:31.851Z,96.11
2023-04-07T21:23:48.973Z,94.58
2023-04-07T21:26:05.899Z,95.36
2023-04-07T21:28:22.885Z,95.96
2023-04-07T21:30:40.194Z,95.46
2023-04-07T21:32:57.313Z,94.42
2023-04-07T21:35:14.405Z,94.98
2023-04-07T21:37:31.463Z,94.89
2023-04-07T21:39:48.671Z,94.79
2023-04-07T21:42:06.046Z,95.81
2023-04-07T21:44:22.987Z,94.40
2023-04-07T21:46:40.050Z,94.97
2023-04-07T21:48:57.051Z,95.13
2023-04-07T21:51:14.134Z,95.33
2023-04-07T21:53:31.406Z,95.97
2023-04-07T21:55:48.445Z,95.93
2023-04-07T21:58:05.417Z,95.45
2023-04-07T22:00:22.529Z,95.42
2023-04-07T22:02:39.914Z,96.34
2023-04-07T22:04:57.398Z,96.75
2023-04-07T22:07:14.438Z,96.82
2023-04-07T22:09:31.501Z,97.05
2023-04-07T22:11:48.559Z,96.89
2023-04-07T22:14:05.539Z,96.65
2023-04-07T22:16:23.498Z,96.92
2023-04-07T22:18:40.483Z,96.97
2023-04-07T22:20:57.623Z,96.61
2023-04-07T22:23:14.677Z,96.55
2023-04-07T22:25:31.743Z,96.67
2023-04-07T22:27:48.837Z,96.51
2023-04-07T22:30:05.803Z,95.92
2023-04-07T22:32:23.226Z,95.57
2023-04-07T22:34:40.585Z,96.96
2023-04-07T22:36:57.575Z,96.97
2023-04-07T22:39:14.596Z,96.25
2023-04-07T22:41:31.479Z,97.28
2023-04-07T22:43:48.714Z,97.29
2023-04-07T22:46:05.908Z,96.24
2023-04-07T22:48:22.971Z,96.52
2023-04-07T22:50:40.004Z,96.80
2023-04-07T22:52:57.332Z,97.43
2023-04-07T22:55:14.309Z,97.04
2023-04-07T22:57:31.253Z,97.31
2023-04-07T22:59:48.370Z,97.29
2023-04-07T23:02:05.804Z,97.43
2023-04-07T23:04:22.975Z,96.41
2023-04-07T23:06:40.172Z,97.53
2023-04-07T23:08:57.443Z,95.92
2023-04-07T23:11:15.367Z,97.01
2023-04-07T23:13:32.328Z,95.90
2023-04-07T23:15:49.629Z,96.33
2023-04-07T23:18:06.711Z,97.21
2023-04-07T23:20:23.657Z,96.45
2023-04-07T23:22:40.786Z,97.06
2023-04-07T23:24:58.120Z,97.67
2023-04-07T23:27:15.168Z,96.77
2023-04-07T23:29:32.138Z,97.62
2023-04-07T23:31:49.551Z,96.54
2023-04-07T23:34:07.702Z,97.42
2023-04-07T23:36:24.653Z,96.46
2023-04-07T23:38:42.067Z,97.77
2023-04-07T23:40:59.079Z,97.61
2023-04-07T23:43:16.454Z,96.58
2023-04-07T23:45:33.842Z,96.75
2023-04-07T23:47:50.974Z,97.50
2023-04-07T23:50:07.970Z,96.81
2023-04-07T23:52:24.976Z,98.36
2023-04-07T23:54:42.252Z,98.00
2023-04-07T23:56:59.211Z,98.29
2023-04-07T23:59:16.158Z,97.29
